sensor_id;sensor_type;location;lat;lon;timestamp;P1;durP1;ratioP1;P2;durP2;ratioP2
51384;SDS011;37478;55.682;37.462;2023-05-29T00:01:45;3.65;;;2.22;;
51384;SDS011;37478;55.682;37.462;2023-05-29T00:04:10;4.10;;;2.13;;
51384;SDS011;37478;55.682;37.462;2023-05-29T00:06:37;4.05;;;2.42;;
51384;SDS011;37478;55.682;37.462;2023-05-29T00:09:02;4.43;;;2.80;;
51384;SDS011;37478;55.682;37.462;2023-05-29T00:11:27;12.80;;;3.55;;
51384;SDS011;37478;55.682;37.462;2023-05-29T00:13:53;4.90;;;2.40;;
51384;SDS011;37478;55.682;37.462;2023-05-29T00:16:18;5.15;;;2.88;;
51384;SDS011;37478;55.682;37.462;2023-05-29T00:18:44;5.00;;;2.90;;
51384;SDS011;37478;55.682;37.462;2023-05-29T00:21:11;5.72;;;3.05;;
51384;SDS011;37478;55.682;37.462;2023-05-29T00:23:38;5.47;;;2.70;;
51384;SDS011;37478;55.682;37.462;2023-05-29T00:26:03;6.57;;;2.70;;
51384;SDS011;37478;55.682;37.462;2023-05-29T00:28:28;7.55;;;2.97;;
51384;SDS011;37478;55.682;37.462;2023-05-29T00:30:54;8.23;;;3.38;;
51384;SDS011;37478;55.682;37.462;2023-05-29T00:33:19;6.32;;;3.33;;
51384;SDS011;37478;55.682;37.462;2023-05-29T00:35:45;5.28;;;3.03;;
51384;SDS011;37478;55.682;37.462;2023-05-29T00:38:10;6.72;;;3.47;;
51384;SDS011;37478;55.682;37.462;2023-05-29T00:40:36;4.15;;;2.40;;
51384;SDS011;37478;55.682;37.462;2023-05-29T00:43:01;5.38;;;2.63;;
51384;SDS011;37478;55.682;37.462;2023-05-29T00:45:27;6.18;;;3.20;;
51384;SDS011;37478;55.682;37.462;2023-05-29T00:47:53;6.30;;;2.60;;
51384;SDS011;37478;55.682;37.462;2023-05-29T00:50:19;4.63;;;2.90;;
51384;SDS011;37478;55.682;37.462;2023-05-29T00:52:46;7.60;;;2.78;;
51384;SDS011;37478;55.682;37.462;2023-05-29T00:55:11;5.50;;;2.70;;
51384;SDS011;37478;55.682;37.462;2023-05-29T00:57:36;4.05;;;2.80;;
51384;SDS011;37478;55.682;37.462;2023-05-29T01:00:04;5.93;;;2.90;;
51384;SDS011;37478;55.682;37.462;2023-05-29T01:02:38;4.97;;;2.95;;
51384;SDS011;37478;55.682;37.462;2023-05-29T01:05:04;4.45;;;2.40;;
51384;SDS011;37478;55.682;37.462;2023-05-29T01:07:30;5.05;;;3.03;;
51384;SDS011;37478;55.682;37.462;2023-05-29T01:09:56;4.53;;;2.85;;
51384;SDS011;37478;55.682;37.462;2023-05-29T01:20:27;5.18;;;2.85;;
51384;SDS011;37478;55.682;37.462;2023-05-29T01:23:06;4.15;;;2.70;;
51384;SDS011;37478;55.682;37.462;2023-05-29T01:28:19;5.95;;;2.38;;
51384;SDS011;37478;55.682;37.462;2023-05-29T01:30:46;4.60;;;2.08;;
51384;SDS011;37478;55.682;37.462;2023-05-29T01:33:12;5.82;;;3.03;;
51384;SDS011;37478;55.682;37.462;2023-05-29T01:35:37;3.60;;;2.47;;
51384;SDS011;37478;55.682;37.462;2023-05-29T01:38:03;4.32;;;2.38;;
51384;SDS011;37478;55.682;37.462;2023-05-29T01:40:28;5.00;;;2.85;;
51384;SDS011;37478;55.682;37.462;2023-05-29T01:42:53;8.50;;;3.50;;
51384;SDS011;37478;55.682;37.462;2023-05-29T01:45:19;6.90;;;3.72;;
51384;SDS011;37478;55.682;37.462;2023-05-29T01:47:45;5.40;;;3.63;;
51384;SDS011;37478;55.682;37.462;2023-05-29T01:50:11;14.77;;;3.00;;
51384;SDS011;37478;55.682;37.462;2023-05-29T01:52:38;8.20;;;4.05;;
51384;SDS011;37478;55.682;37.462;2023-05-29T01:55:03;6.93;;;3.03;;
51384;SDS011;37478;55.682;37.462;2023-05-29T01:57:29;3.97;;;2.80;;
51384;SDS011;37478;55.682;37.462;2023-05-29T01:59:54;5.30;;;3.03;;
51384;SDS011;37478;55.682;37.462;2023-05-29T02:02:21;5.88;;;2.50;;
51384;SDS011;37478;55.682;37.462;2023-05-29T02:04:46;5.82;;;2.75;;
51384;SDS011;37478;55.682;37.462;2023-05-29T02:07:11;6.43;;;4.10;;
51384;SDS011;37478;55.682;37.462;2023-05-29T02:09:37;4.93;;;3.30;;
51384;SDS011;37478;55.682;37.462;2023-05-29T02:12:02;4.72;;;3.00;;
51384;SDS011;37478;55.682;37.462;2023-05-29T02:14:28;6.80;;;2.75;;
51384;SDS011;37478;55.682;37.462;2023-05-29T02:16:54;8.73;;;2.70;;
51384;SDS011;37478;55.682;37.462;2023-05-29T02:19:19;6.28;;;2.55;;
51384;SDS011;37478;55.682;37.462;2023-05-29T02:21:46;8.27;;;3.05;;
51384;SDS011;37478;55.682;37.462;2023-05-29T02:24:12;7.07;;;3.03;;
51384;SDS011;37478;55.682;37.462;2023-05-29T02:26:37;6.38;;;2.92;;
51384;SDS011;37478;55.682;37.462;2023-05-29T02:29:02;3.60;;;2.45;;
51384;SDS011;37478;55.682;37.462;2023-05-29T02:31:31;6.00;;;3.20;;
51384;SDS011;37478;55.682;37.462;2023-05-29T02:33:56;5.28;;;2.92;;
51384;SDS011;37478;55.682;37.462;2023-05-29T02:36:21;3.75;;;2.38;;
51384;SDS011;37478;55.682;37.462;2023-05-29T02:38:47;3.97;;;2.67;;
51384;SDS011;37478;55.682;37.462;2023-05-29T02:41:12;6.50;;;3.08;;
51384;SDS011;37478;55.682;37.462;2023-05-29T02:43:37;4.05;;;2.50;;
51384;SDS011;37478;55.682;37.462;2023-05-29T02:46:03;5.65;;;2.60;;
51384;SDS011;37478;55.682;37.462;2023-05-29T02:48:28;4.50;;;2.85;;
51384;SDS011;37478;55.682;37.462;2023-05-29T02:50:54;4.13;;;2.58;;
51384;SDS011;37478;55.682;37.462;2023-05-29T02:53:19;5.13;;;2.20;;
51384;SDS011;37478;55.682;37.462;2023-05-29T02:55:45;5.18;;;2.75;;
51384;SDS011;37478;55.682;37.462;2023-05-29T02:58:10;4.28;;;2.63;;
51384;SDS011;37478;55.682;37.462;2023-05-29T03:00:36;5.72;;;2.90;;
51384;SDS011;37478;55.682;37.462;2023-05-29T03:03:01;6.68;;;2.72;;
51384;SDS011;37478;55.682;37.462;2023-05-29T03:05:28;5.38;;;2.50;;
51384;SDS011;37478;55.682;37.462;2023-05-29T03:07:53;3.10;;;2.33;;
51384;SDS011;37478;55.682;37.462;2023-05-29T03:10:18;6.03;;;2.85;;
51384;SDS011;37478;55.682;37.462;2023-05-29T03:12:44;4.00;;;2.58;;
51384;SDS011;37478;55.682;37.462;2023-05-29T03:15:09;4.22;;;2.70;;
51384;SDS011;37478;55.682;37.462;2023-05-29T03:17:35;8.40;;;2.63;;
51384;SDS011;37478;55.682;37.462;2023-05-29T03:20:03;5.95;;;2.90;;
51384;SDS011;37478;55.682;37.462;2023-05-29T03:22:31;2.75;;;2.17;;
51384;SDS011;37478;55.682;37.462;2023-05-29T03:24:56;3.50;;;2.30;;
51384;SDS011;37478;55.682;37.462;2023-05-29T03:27:21;3.75;;;2.33;;
51384;SDS011;37478;55.682;37.462;2023-05-29T03:29:46;5.22;;;2.38;;
51384;SDS011;37478;55.682;37.462;2023-05-29T03:32:12;10.95;;;2.88;;
51384;SDS011;37478;55.682;37.462;2023-05-29T03:34:37;3.70;;;1.95;;
51384;SDS011;37478;55.682;37.462;2023-05-29T03:37:02;3.67;;;2.17;;
51384;SDS011;37478;55.682;37.462;2023-05-29T03:39:28;5.15;;;2.17;;
51384;SDS011;37478;55.682;37.462;2023-05-29T03:41:53;4.43;;;2.67;;
51384;SDS011;37478;55.682;37.462;2023-05-29T03:44:19;5.18;;;2.38;;
51384;SDS011;37478;55.682;37.462;2023-05-29T03:46:44;3.78;;;2.42;;
51384;SDS011;37478;55.682;37.462;2023-05-29T03:49:09;4.45;;;2.83;;
51384;SDS011;37478;55.682;37.462;2023-05-29T03:51:35;4.72;;;2.63;;
51384;SDS011;37478;55.682;37.462;2023-05-29T03:54:01;4.40;;;2.60;;
51384;SDS011;37478;55.682;37.462;2023-05-29T03:56:26;7.68;;;2.55;;
51384;SDS011;37478;55.682;37.462;2023-05-29T03:58:52;5.55;;;2.53;;
51384;SDS011;37478;55.682;37.462;2023-05-29T04:01:17;4.35;;;2.58;;
51384;SDS011;37478;55.682;37.462;2023-05-29T04:03:42;5.72;;;2.28;;
51384;SDS011;37478;55.682;37.462;2023-05-29T04:06:10;3.58;;;2.20;;
51384;SDS011;37478;55.682;37.462;2023-05-29T04:08:36;6.22;;;2.30;;
51384;SDS011;37478;55.682;37.462;2023-05-29T04:11:01;6.38;;;2.33;;
51384;SDS011;37478;55.682;37.462;2023-05-29T04:13:28;9.30;;;3.78;;
51384;SDS011;37478;55.682;37.462;2023-05-29T04:15:53;6.43;;;2.50;;
51384;SDS011;37478;55.682;37.462;2023-05-29T04:18:31;5.03;;;2.80;;
51384;SDS011;37478;55.682;37.462;2023-05-29T04:20:56;6.93;;;2.58;;
51384;SDS011;37478;55.682;37.462;2023-05-29T04:23:22;8.88;;;3.20;;
51384;SDS011;37478;55.682;37.462;2023-05-29T04:25:53;4.68;;;2.65;;
51384;SDS011;37478;55.682;37.462;2023-05-29T04:28:19;6.40;;;3.42;;
51384;SDS011;37478;55.682;37.462;2023-05-29T04:30:47;8.93;;;3.50;;
51384;SDS011;37478;55.682;37.462;2023-05-29T04:33:12;5.07;;;2.47;;
51384;SDS011;37478;55.682;37.462;2023-05-29T04:35:39;3.33;;;2.25;;
51384;SDS011;37478;55.682;37.462;2023-05-29T04:38:08;8.40;;;2.50;;
51384;SDS011;37478;55.682;37.462;2023-05-29T04:40:33;6.93;;;2.22;;
51384;SDS011;37478;55.682;37.462;2023-05-29T04:42:58;10.50;;;2.80;;
51384;SDS011;37478;55.682;37.462;2023-05-29T04:45:25;5.85;;;2.67;;
51384;SDS011;37478;55.682;37.462;2023-05-29T04:47:50;5.40;;;3.83;;
51384;SDS011;37478;55.682;37.462;2023-05-29T04:50:18;9.57;;;5.03;;
51384;SDS011;37478;55.682;37.462;2023-05-29T04:52:49;6.22;;;2.60;;
51384;SDS011;37478;55.682;37.462;2023-05-29T04:55:15;10.02;;;3.53;;
51384;SDS011;37478;55.682;37.462;2023-05-29T04:57:47;7.63;;;2.63;;
51384;SDS011;37478;55.682;37.462;2023-05-29T05:00:13;5.25;;;2.45;;
51384;SDS011;37478;55.682;37.462;2023-05-29T05:02:40;4.05;;;2.45;;
51384;SDS011;37478;55.682;37.462;2023-05-29T05:05:06;5.00;;;2.67;;
51384;SDS011;37478;55.682;37.462;2023-05-29T05:07:31;9.25;;;2.40;;
51384;SDS011;37478;55.682;37.462;2023-05-29T05:09:57;4.88;;;2.42;;
51384;SDS011;37478;55.682;37.462;2023-05-29T05:12:22;6.30;;;2.72;;
51384;SDS011;37478;55.682;37.462;2023-05-29T05:14:47;3.85;;;2.22;;
51384;SDS011;37478;55.682;37.462;2023-05-29T05:17:13;5.10;;;2.30;;
51384;SDS011;37478;55.682;37.462;2023-05-29T05:19:38;10.30;;;2.80;;
51384;SDS011;37478;55.682;37.462;2023-05-29T05:22:03;7.65;;;3.08;;
51384;SDS011;37478;55.682;37.462;2023-05-29T05:24:29;7.30;;;3.05;;
51384;SDS011;37478;55.682;37.462;2023-05-29T05:26:54;6.55;;;2.78;;
51384;SDS011;37478;55.682;37.462;2023-05-29T05:29:19;4.28;;;2.67;;
51384;SDS011;37478;55.682;37.462;2023-05-29T05:31:45;6.50;;;2.90;;
51384;SDS011;37478;55.682;37.462;2023-05-29T05:34:10;6.35;;;2.20;;
51384;SDS011;37478;55.682;37.462;2023-05-29T05:36:35;5.72;;;2.50;;
51384;SDS011;37478;55.682;37.462;2023-05-29T05:39:02;15.07;;;3.40;;
51384;SDS011;37478;55.682;37.462;2023-05-29T05:41:27;2.78;;;1.92;;
51384;SDS011;37478;55.682;37.462;2023-05-29T05:43:52;3.53;;;2.00;;
51384;SDS011;37478;55.682;37.462;2023-05-29T05:46:18;4.35;;;2.10;;
51384;SDS011;37478;55.682;37.462;2023-05-29T05:48:43;9.10;;;2.10;;
51384;SDS011;37478;55.682;37.462;2023-05-29T05:51:08;3.03;;;1.63;;
51384;SDS011;37478;55.682;37.462;2023-05-29T05:53:33;3.30;;;1.63;;
51384;SDS011;37478;55.682;37.462;2023-05-29T05:55:59;6.60;;;1.48;;
51384;SDS011;37478;55.682;37.462;2023-05-29T05:58:24;5.97;;;2.20;;
51384;SDS011;37478;55.682;37.462;2023-05-29T06:00:50;4.47;;;1.73;;
51384;SDS011;37478;55.682;37.462;2023-05-29T06:03:17;8.75;;;2.13;;
51384;SDS011;37478;55.682;37.462;2023-05-29T06:05:42;36.70;;;6.95;;
51384;SDS011;37478;55.682;37.462;2023-05-29T06:08:08;7.00;;;2.28;;
51384;SDS011;37478;55.682;37.462;2023-05-29T06:10:33;8.00;;;3.13;;
51384;SDS011;37478;55.682;37.462;2023-05-29T06:12:59;5.70;;;1.65;;
51384;SDS011;37478;55.682;37.462;2023-05-29T06:15:24;2.63;;;1.33;;
51384;SDS011;37478;55.682;37.462;2023-05-29T06:17:49;2.65;;;1.25;;
51384;SDS011;37478;55.682;37.462;2023-05-29T06:20:16;2.10;;;1.42;;
51384;SDS011;37478;55.682;37.462;2023-05-29T06:22:42;2.95;;;1.58;;
51384;SDS011;37478;55.682;37.462;2023-05-29T06:25:07;7.03;;;1.90;;
51384;SDS011;37478;55.682;37.462;2023-05-29T06:27:34;2.95;;;1.30;;
51384;SDS011;37478;55.682;37.462;2023-05-29T06:29:59;4.45;;;1.58;;
51384;SDS011;37478;55.682;37.462;2023-05-29T06:32:24;3.28;;;1.65;;
51384;SDS011;37478;55.682;37.462;2023-05-29T06:34:50;6.80;;;1.70;;
51384;SDS011;37478;55.682;37.462;2023-05-29T06:37:16;2.28;;;1.42;;
51384;SDS011;37478;55.682;37.462;2023-05-29T06:39:44;2.28;;;1.73;;
51384;SDS011;37478;55.682;37.462;2023-05-29T06:42:09;1.85;;;1.45;;
51384;SDS011;37478;55.682;37.462;2023-05-29T06:44:35;2.90;;;1.08;;
51384;SDS011;37478;55.682;37.462;2023-05-29T06:47:00;1.25;;;1.10;;
51384;SDS011;37478;55.682;37.462;2023-05-29T06:49:26;4.18;;;1.35;;
51384;SDS011;37478;55.682;37.462;2023-05-29T06:51:51;5.18;;;2.05;;
51384;SDS011;37478;55.682;37.462;2023-05-29T06:54:16;2.10;;;1.10;;
51384;SDS011;37478;55.682;37.462;2023-05-29T06:56:42;1.30;;;1.13;;
51384;SDS011;37478;55.682;37.462;2023-05-29T06:59:07;2.15;;;1.13;;
51384;SDS011;37478;55.682;37.462;2023-05-29T07:01:32;1.92;;;1.33;;
51384;SDS011;37478;55.682;37.462;2023-05-29T07:03:58;1.63;;;1.10;;
51384;SDS011;37478;55.682;37.462;2023-05-29T07:06:23;1.60;;;1.40;;
51384;SDS011;37478;55.682;37.462;2023-05-29T07:08:48;4.07;;;1.50;;
51384;SDS011;37478;55.682;37.462;2023-05-29T07:11:14;1.77;;;1.05;;
51384;SDS011;37478;55.682;37.462;2023-05-29T07:13:39;1.50;;;1.23;;
51384;SDS011;37478;55.682;37.462;2023-05-29T07:16:05;1.58;;;1.38;;
51384;SDS011;37478;55.682;37.462;2023-05-29T07:18:30;2.85;;;1.20;;
51384;SDS011;37478;55.682;37.462;2023-05-29T07:20:56;3.42;;;1.45;;
51384;SDS011;37478;55.682;37.462;2023-05-29T07:23:21;2.50;;;0.90;;
51384;SDS011;37478;55.682;37.462;2023-05-29T07:25:46;3.50;;;1.20;;
51384;SDS011;37478;55.682;37.462;2023-05-29T07:28:17;2.10;;;1.35;;
51384;SDS011;37478;55.682;37.462;2023-05-29T07:30:43;3.22;;;1.52;;
51384;SDS011;37478;55.682;37.462;2023-05-29T07:33:08;1.70;;;1.60;;
51384;SDS011;37478;55.682;37.462;2023-05-29T07:35:39;1.10;;;1.00;;
51384;SDS011;37478;55.682;37.462;2023-05-29T07:38:05;2.25;;;1.45;;
51384;SDS011;37478;55.682;37.462;2023-05-29T07:40:30;2.05;;;1.25;;
51384;SDS011;37478;55.682;37.462;2023-05-29T07:42:55;3.88;;;1.27;;
51384;SDS011;37478;55.682;37.462;2023-05-29T07:45:21;2.92;;;1.20;;
51384;SDS011;37478;55.682;37.462;2023-05-29T07:47:46;3.63;;;1.60;;
51384;SDS011;37478;55.682;37.462;2023-05-29T07:50:13;2.13;;;1.40;;
51384;SDS011;37478;55.682;37.462;2023-05-29T07:52:38;2.65;;;1.52;;
51384;SDS011;37478;55.682;37.462;2023-05-29T07:55:04;2.20;;;1.05;;
51384;SDS011;37478;55.682;37.462;2023-05-29T07:57:29;1.80;;;1.27;;
51384;SDS011;37478;55.682;37.462;2023-05-29T07:59:55;1.40;;;1.30;;
51384;SDS011;37478;55.682;37.462;2023-05-29T08:02:21;2.17;;;1.23;;
51384;SDS011;37478;55.682;37.462;2023-05-29T08:04:52;2.20;;;1.58;;
51384;SDS011;37478;55.682;37.462;2023-05-29T08:07:17;2.35;;;1.13;;
51384;SDS011;37478;55.682;37.462;2023-05-29T08:09:43;1.52;;;1.42;;
51384;SDS011;37478;55.682;37.462;2023-05-29T08:12:08;2.13;;;1.17;;
51384;SDS011;37478;55.682;37.462;2023-05-29T08:14:33;2.15;;;1.48;;
51384;SDS011;37478;55.682;37.462;2023-05-29T08:16:59;3.08;;;1.30;;
51384;SDS011;37478;55.682;37.462;2023-05-29T08:19:24;2.65;;;1.50;;
51384;SDS011;37478;55.682;37.462;2023-05-29T08:21:50;1.90;;;1.13;;
51384;SDS011;37478;55.682;37.462;2023-05-29T08:24:15;3.13;;;1.50;;
51384;SDS011;37478;55.682;37.462;2023-05-29T08:26:41;3.65;;;1.90;;
51384;SDS011;37478;55.682;37.462;2023-05-29T08:29:08;2.15;;;1.38;;
51384;SDS011;37478;55.682;37.462;2023-05-29T08:31:33;1.52;;;1.30;;
51384;SDS011;37478;55.682;37.462;2023-05-29T08:33:59;3.05;;;2.20;;
51384;SDS011;37478;55.682;37.462;2023-05-29T08:36:24;3.33;;;1.50;;
51384;SDS011;37478;55.682;37.462;2023-05-29T08:38:50;4.93;;;1.77;;
51384;SDS011;37478;55.682;37.462;2023-05-29T08:41:25;2.47;;;1.45;;
51384;SDS011;37478;55.682;37.462;2023-05-29T08:46:17;4.83;;;1.80;;
51384;SDS011;37478;55.682;37.462;2023-05-29T08:48:43;2.47;;;1.35;;
51384;SDS011;37478;55.682;37.462;2023-05-29T08:51:08;2.13;;;1.38;;
51384;SDS011;37478;55.682;37.462;2023-05-29T08:53:34;5.63;;;1.42;;
51384;SDS011;37478;55.682;37.462;2023-05-29T08:56:00;4.50;;;1.30;;
51384;SDS011;37478;55.682;37.462;2023-05-29T08:58:26;1.90;;;1.50;;
51384;SDS011;37478;55.682;37.462;2023-05-29T09:00:52;3.92;;;1.70;;
51384;SDS011;37478;55.682;37.462;2023-05-29T09:03:17;7.13;;;1.50;;
51384;SDS011;37478;55.682;37.462;2023-05-29T09:05:42;1.70;;;1.42;;
51384;SDS011;37478;55.682;37.462;2023-05-29T09:08:09;3.90;;;1.70;;
51384;SDS011;37478;55.682;37.462;2023-05-29T09:10:37;2.38;;;1.42;;
51384;SDS011;37478;55.682;37.462;2023-05-29T09:13:02;1.85;;;1.27;;
51384;SDS011;37478;55.682;37.462;2023-05-29T09:15:28;1.90;;;1.35;;
51384;SDS011;37478;55.682;37.462;2023-05-29T09:17:54;1.70;;;1.15;;
51384;SDS011;37478;55.682;37.462;2023-05-29T09:20:21;2.75;;;1.55;;
51384;SDS011;37478;55.682;37.462;2023-05-29T09:22:52;2.38;;;2.08;;
51384;SDS011;37478;55.682;37.462;2023-05-29T09:25:18;1.73;;;1.55;;
51384;SDS011;37478;55.682;37.462;2023-05-29T09:27:46;4.30;;;1.30;;
51384;SDS011;37478;55.682;37.462;2023-05-29T09:32:55;3.25;;;1.45;;
51384;SDS011;37478;55.682;37.462;2023-05-29T09:35:21;2.20;;;1.33;;
51384;SDS011;37478;55.682;37.462;2023-05-29T09:37:46;1.95;;;1.70;;
51384;SDS011;37478;55.682;37.462;2023-05-29T09:40:11;2.67;;;1.40;;
51384;SDS011;37478;55.682;37.462;2023-05-29T09:42:37;5.05;;;1.75;;
51384;SDS011;37478;55.682;37.462;2023-05-29T09:45:03;3.08;;;1.25;;
51384;SDS011;37478;55.682;37.462;2023-05-29T09:47:32;2.75;;;1.67;;
51384;SDS011;37478;55.682;37.462;2023-05-29T09:49:57;2.25;;;1.20;;
51384;SDS011;37478;55.682;37.462;2023-05-29T09:52:25;2.95;;;1.42;;
51384;SDS011;37478;55.682;37.462;2023-05-29T09:54:51;3.78;;;1.30;;
51384;SDS011;37478;55.682;37.462;2023-05-29T09:57:17;2.67;;;2.00;;
51384;SDS011;37478;55.682;37.462;2023-05-29T09:59:43;1.58;;;1.27;;
51384;SDS011;37478;55.682;37.462;2023-05-29T10:02:10;2.20;;;1.10;;
51384;SDS011;37478;55.682;37.462;2023-05-29T10:04:37;2.95;;;1.83;;
51384;SDS011;37478;55.682;37.462;2023-05-29T10:07:22;3.55;;;1.55;;
51384;SDS011;37478;55.682;37.462;2023-05-29T10:09:50;2.70;;;1.30;;
51384;SDS011;37478;55.682;37.462;2023-05-29T10:12:19;1.98;;;1.55;;
51384;SDS011;37478;55.682;37.462;2023-05-29T10:14:46;10.05;;;1.77;;
51384;SDS011;37478;55.682;37.462;2023-05-29T10:17:13;3.30;;;1.70;;
51384;SDS011;37478;55.682;37.462;2023-05-29T10:19:38;2.25;;;1.40;;
51384;SDS011;37478;55.682;37.462;2023-05-29T10:22:10;2.03;;;1.10;;
51384;SDS011;37478;55.682;37.462;2023-05-29T10:24:36;2.03;;;1.10;;
51384;SDS011;37478;55.682;37.462;2023-05-29T10:27:02;2.33;;;1.60;;
51384;SDS011;37478;55.682;37.462;2023-05-29T10:29:41;3.95;;;3.20;;
51384;SDS011;37478;55.682;37.462;2023-05-29T10:32:25;2.80;;;1.38;;
51384;SDS011;37478;55.682;37.462;2023-05-29T10:34:57;2.22;;;1.58;;
51384;SDS011;37478;55.682;37.462;2023-05-29T10:40:10;2.28;;;1.52;;
51384;SDS011;37478;55.682;37.462;2023-05-29T10:42:41;4.53;;;1.67;;
51384;SDS011;37478;55.682;37.462;2023-05-29T10:45:11;3.22;;;1.60;;
51384;SDS011;37478;55.682;37.462;2023-05-29T10:47:37;3.03;;;1.83;;
51384;SDS011;37478;55.682;37.462;2023-05-29T10:50:03;1.75;;;1.27;;
51384;SDS011;37478;55.682;37.462;2023-05-29T10:52:32;3.90;;;1.55;;
51384;SDS011;37478;55.682;37.462;2023-05-29T10:54:57;5.10;;;1.50;;
51384;SDS011;37478;55.682;37.462;2023-05-29T10:57:23;6.05;;;2.33;;
51384;SDS011;37478;55.682;37.462;2023-05-29T10:59:57;2.40;;;1.65;;
51384;SDS011;37478;55.682;37.462;2023-05-29T11:02:22;3.25;;;1.77;;
51384;SDS011;37478;55.682;37.462;2023-05-29T11:05:04;3.10;;;1.88;;
51384;SDS011;37478;55.682;37.462;2023-05-29T11:07:33;1.88;;;1.48;;
51384;SDS011;37478;55.682;37.462;2023-05-29T11:10:12;3.50;;;1.90;;
51384;SDS011;37478;55.682;37.462;2023-05-29T11:12:56;1.55;;;1.20;;
51384;SDS011;37478;55.682;37.462;2023-05-29T11:15:21;3.17;;;1.17;;
51384;SDS011;37478;55.682;37.462;2023-05-29T11:17:46;2.47;;;1.55;;
51384;SDS011;37478;55.682;37.462;2023-05-29T11:20:28;2.05;;;1.52;;
51384;SDS011;37478;55.682;37.462;2023-05-29T11:25:23;3.60;;;1.47;;
51384;SDS011;37478;55.682;37.462;2023-05-29T11:27:49;2.88;;;1.10;;
51384;SDS011;37478;55.682;37.462;2023-05-29T11:30:17;7.95;;;2.33;;
51384;SDS011;37478;55.682;37.462;2023-05-29T11:32:42;5.60;;;1.50;;
51384;SDS011;37478;55.682;37.462;2023-05-29T11:35:10;3.58;;;2.30;;
51384;SDS011;37478;55.682;37.462;2023-05-29T11:37:36;2.03;;;1.50;;
51384;SDS011;37478;55.682;37.462;2023-05-29T11:40:09;1.88;;;1.35;;
51384;SDS011;37478;55.682;37.462;2023-05-29T11:42:34;3.88;;;1.70;;
51384;SDS011;37478;55.682;37.462;2023-05-29T11:45:20;2.88;;;1.58;;
51384;SDS011;37478;55.682;37.462;2023-05-29T11:47:58;2.35;;;1.65;;
51384;SDS011;37478;55.682;37.462;2023-05-29T11:50:27;3.47;;;1.70;;
51384;SDS011;37478;55.682;37.462;2023-05-29T11:52:53;2.80;;;1.75;;
51384;SDS011;37478;55.682;37.462;2023-05-29T11:55:19;1.50;;;1.40;;
51384;SDS011;37478;55.682;37.462;2023-05-29T11:57:45;1.52;;;1.33;;
51384;SDS011;37478;55.682;37.462;2023-05-29T12:00:14;3.03;;;1.55;;
51384;SDS011;37478;55.682;37.462;2023-05-29T12:02:40;3.40;;;1.85;;
51384;SDS011;37478;55.682;37.462;2023-05-29T12:05:07;2.58;;;1.73;;
51384;SDS011;37478;55.682;37.462;2023-05-29T12:07:33;1.70;;;1.33;;
51384;SDS011;37478;55.682;37.462;2023-05-29T12:10:14;2.83;;;1.23;;
51384;SDS011;37478;55.682;37.462;2023-05-29T12:12:41;2.92;;;1.80;;
51384;SDS011;37478;55.682;37.462;2023-05-29T12:15:06;2.08;;;1.45;;
51384;SDS011;37478;55.682;37.462;2023-05-29T12:17:33;2.90;;;1.90;;
51384;SDS011;37478;55.682;37.462;2023-05-29T12:19:58;2.75;;;1.40;;
51384;SDS011;37478;55.682;37.462;2023-05-29T12:22:32;4.85;;;1.50;;
51384;SDS011;37478;55.682;37.462;2023-05-29T12:25:03;2.33;;;1.70;;
51384;SDS011;37478;55.682;37.462;2023-05-29T12:27:34;4.30;;;1.80;;
51384;SDS011;37478;55.682;37.462;2023-05-29T12:30:06;2.35;;;1.40;;
51384;SDS011;37478;55.682;37.462;2023-05-29T12:32:35;3.60;;;1.63;;
51384;SDS011;37478;55.682;37.462;2023-05-29T12:35:01;3.03;;;1.52;;
51384;SDS011;37478;55.682;37.462;2023-05-29T12:37:29;2.88;;;1.25;;
51384;SDS011;37478;55.682;37.462;2023-05-29T12:40:14;1.80;;;1.60;;
51384;SDS011;37478;55.682;37.462;2023-05-29T12:42:40;7.23;;;1.80;;
51384;SDS011;37478;55.682;37.462;2023-05-29T12:45:06;6.40;;;2.42;;
51384;SDS011;37478;55.682;37.462;2023-05-29T12:47:33;3.33;;;1.98;;
51384;SDS011;37478;55.682;37.462;2023-05-29T12:49:58;4.78;;;1.73;;
51384;SDS011;37478;55.682;37.462;2023-05-29T12:52:29;3.50;;;1.70;;
51384;SDS011;37478;55.682;37.462;2023-05-29T12:54:55;4.55;;;1.35;;
51384;SDS011;37478;55.682;37.462;2023-05-29T12:57:20;4.00;;;1.83;;
51384;SDS011;37478;55.682;37.462;2023-05-29T12:59:45;6.43;;;1.70;;
51384;SDS011;37478;55.682;37.462;2023-05-29T13:02:11;5.38;;;1.95;;
51384;SDS011;37478;55.682;37.462;2023-05-29T13:04:36;3.97;;;1.60;;
51384;SDS011;37478;55.682;37.462;2023-05-29T13:07:02;4.68;;;1.77;;
51384;SDS011;37478;55.682;37.462;2023-05-29T13:09:27;2.05;;;1.52;;
51384;SDS011;37478;55.682;37.462;2023-05-29T13:11:53;3.97;;;2.13;;
51384;SDS011;37478;55.682;37.462;2023-05-29T13:14:18;3.63;;;1.55;;
51384;SDS011;37478;55.682;37.462;2023-05-29T13:16:43;4.93;;;1.60;;
51384;SDS011;37478;55.682;37.462;2023-05-29T13:19:09;2.45;;;1.73;;
51384;SDS011;37478;55.682;37.462;2023-05-29T13:21:34;2.60;;;1.90;;
51384;SDS011;37478;55.682;37.462;2023-05-29T13:24:00;2.60;;;1.40;;
51384;SDS011;37478;55.682;37.462;2023-05-29T13:26:25;2.55;;;1.63;;
51384;SDS011;37478;55.682;37.462;2023-05-29T13:28:51;3.63;;;2.25;;
51384;SDS011;37478;55.682;37.462;2023-05-29T13:31:17;5.43;;;1.70;;
51384;SDS011;37478;55.682;37.462;2023-05-29T13:33:42;2.15;;;1.40;;
51384;SDS011;37478;55.682;37.462;2023-05-29T13:36:08;3.72;;;2.05;;
51384;SDS011;37478;55.682;37.462;2023-05-29T13:38:33;3.17;;;1.60;;
51384;SDS011;37478;55.682;37.462;2023-05-29T13:40:58;3.13;;;1.85;;
51384;SDS011;37478;55.682;37.462;2023-05-29T13:43:24;3.78;;;2.05;;
51384;SDS011;37478;55.682;37.462;2023-05-29T13:45:49;1.77;;;1.52;;
51384;SDS011;37478;55.682;37.462;2023-05-29T13:48:14;3.63;;;1.98;;
51384;SDS011;37478;55.682;37.462;2023-05-29T13:50:40;4.40;;;2.15;;
51384;SDS011;37478;55.682;37.462;2023-05-29T13:53:05;7.57;;;1.77;;
51384;SDS011;37478;55.682;37.462;2023-05-29T13:55:31;8.77;;;2.40;;
51384;SDS011;37478;55.682;37.462;2023-05-29T13:57:56;2.45;;;1.65;;
51384;SDS011;37478;55.682;37.462;2023-05-29T14:00:23;5.90;;;2.30;;
51384;SDS011;37478;55.682;37.462;2023-05-29T14:02:48;2.10;;;1.80;;
51384;SDS011;37478;55.682;37.462;2023-05-29T14:05:13;6.25;;;2.20;;
51384;SDS011;37478;55.682;37.462;2023-05-29T14:07:39;3.13;;;2.03;;
51384;SDS011;37478;55.682;37.462;2023-05-29T14:10:04;3.05;;;1.85;;
51384;SDS011;37478;55.682;37.462;2023-05-29T14:12:30;6.90;;;1.88;;
51384;SDS011;37478;55.682;37.462;2023-05-29T14:14:55;2.55;;;1.70;;
51384;SDS011;37478;55.682;37.462;2023-05-29T14:17:21;3.30;;;1.90;;
51384;SDS011;37478;55.682;37.462;2023-05-29T14:19:46;5.32;;;2.15;;
51384;SDS011;37478;55.682;37.462;2023-05-29T14:22:12;3.22;;;1.73;;
51384;SDS011;37478;55.682;37.462;2023-05-29T14:24:38;3.65;;;1.55;;
51384;SDS011;37478;55.682;37.462;2023-05-29T14:27:03;3.25;;;2.25;;
51384;SDS011;37478;55.682;37.462;2023-05-29T14:29:29;2.97;;;1.70;;
51384;SDS011;37478;55.682;37.462;2023-05-29T14:31:54;2.95;;;1.63;;
51384;SDS011;37478;55.682;37.462;2023-05-29T14:34:19;2.15;;;1.65;;
51384;SDS011;37478;55.682;37.462;2023-05-29T14:36:45;1.98;;;1.67;;
51384;SDS011;37478;55.682;37.462;2023-05-29T14:39:10;4.18;;;1.80;;
51384;SDS011;37478;55.682;37.462;2023-05-29T14:41:37;4.07;;;1.65;;
51384;SDS011;37478;55.682;37.462;2023-05-29T14:44:02;3.38;;;2.00;;
51384;SDS011;37478;55.682;37.462;2023-05-29T14:46:28;3.13;;;1.65;;
51384;SDS011;37478;55.682;37.462;2023-05-29T14:48:56;3.72;;;1.70;;
51384;SDS011;37478;55.682;37.462;2023-05-29T14:51:22;3.50;;;1.63;;